sensor_id;sensor_type;location;lat;lon;timestamp;pressure;altitude;pressure_sealevel;temperature;humidity
43312;BME280;30041;48.300;16.352;2023-02-02T00:00:29;99740.16;;;20.35;42.18
43312;BME280;30041;48.300;16.352;2023-02-02T00:02:55;99733.16;;;20.34;42.25
43312;BME280;30041;48.300;16.352;2023-02-02T00:05:20;99730.69;;;20.32;42.10
43312;BME280;30041;48.300;16.352;2023-02-02T00:07:48;99736.88;;;20.33;42.05
43312;BME280;30041;48.300;16.352;2023-02-02T00:10:18;99721.78;;;20.32;41.94
43312;BME280;30041;48.300;16.352;2023-02-02T00:12:45;99691.59;;;20.30;42.14
43312;BME280;30041;48.300;16.352;2023-02-02T00:15:11;99662.22;;;20.28;41.95
43312;BME280;30041;48.300;16.352;2023-02-02T00:17:36;99657.63;;;20.29;42.29
43312;BME280;30041;48.300;16.352;2023-02-02T00:20:02;99661.19;;;20.29;42.11
43312;BME280;30041;48.300;16.352;2023-02-02T00:22:27;99650.03;;;20.26;42.10
43312;BME280;30041;48.300;16.352;2023-02-02T00:24:53;99643.84;;;20.25;41.85
43312;BME280;30041;48.300;16.352;2023-02-02T00:27:18;99643.84;;;20.25;42.07
43312;BME280;30041;48.300;16.352;2023-02-02T00:29:44;99642.44;;;20.23;42.29
43312;BME280;30041;48.300;16.352;2023-02-02T00:32:09;99635.97;;;20.24;42.10
43312;BME280;30041;48.300;16.352;2023-02-02T00:34:35;99642.44;;;20.23;42.27
43312;BME280;30041;48.300;16.352;2023-02-02T00:40:03;99616.78;;;20.20;42.10
43312;BME280;30041;48.300;16.352;2023-02-02T00:42:29;99625.09;;;20.19;42.00
43312;BME280;30041;48.300;16.352;2023-02-02T00:44:54;99621.81;;;20.17;42.10
43312;BME280;30041;48.300;16.352;2023-02-02T00:47:20;99631.75;;;20.16;42.16
43312;BME280;30041;48.300;16.352;2023-02-02T00:49:45;99631.75;;;20.16;42.02
43312;BME280;30041;48.300;16.352;2023-02-02T00:52:11;99613.75;;;20.17;42.08
43312;BME280;30041;48.300;16.352;2023-02-02T00:54:36;99633.38;;;20.17;42.19
43312;BME280;30041;48.300;16.352;2023-02-02T00:57:02;99647.06;;;20.16;41.89
43312;BME280;30041;48.300;16.352;2023-02-02T00:59:27;99656.19;;;20.15;42.06
43312;BME280;30041;48.300;16.352;2023-02-02T01:01:53;99642.97;;;20.13;41.92
43312;BME280;30041;48.300;16.352;2023-02-02T01:04:18;99633.84;;;20.14;42.17
43312;BME280;30041;48.300;16.352;2023-02-02T01:06:44;99647.53;;;20.13;42.14
43312;BME280;30041;48.300;16.352;2023-02-02T01:09:10;99641.94;;;20.14;42.13
43312;BME280;30041;48.300;16.352;2023-02-02T01:11:36;99651.63;;;20.15;42.11
43312;BME280;30041;48.300;16.352;2023-02-02T01:14:01;99661.19;;;20.11;42.14
43312;BME280;30041;48.300;16.352;2023-02-02T01:16:27;99662.00;;;20.11;42.12
43312;BME280;30041;48.300;16.352;2023-02-02T01:18:53;99659.78;;;20.08;42.10
43312;BME280;30041;48.300;16.352;2023-02-02T01:21:19;99654.41;;;20.08;41.93
43312;BME280;30041;48.300;16.352;2023-02-02T01:23:45;99669.53;;;20.09;42.20
43312;BME280;30041;48.300;16.352;2023-02-02T01:26:11;99656.28;;;20.08;42.02
43312;BME280;30041;48.300;16.352;2023-02-02T01:28:37;99652.53;;;20.09;41.80
43312;BME280;30041;48.300;16.352;2023-02-02T01:31:12;99622.94;;;20.09;42.04
43312;BME280;30041;48.300;16.352;2023-02-02T01:33:38;99613.03;;;20.09;42.21
43312;BME280;30041;48.300;16.352;2023-02-02T01:36:06;99614.88;;;20.09;41.92
43312;BME280;30041;48.300;16.352;2023-02-02T01:38:33;99627.72;;;20.07;41.87
43312;BME280;30041;48.300;16.352;2023-02-02T01:40:58;99633.34;;;20.05;41.89
43312;BME280;30041;48.300;16.352;2023-02-02T01:46:14;99638.94;;;20.04;41.81
43312;BME280;30041;48.300;16.352;2023-02-02T01:48:50;99637.75;;;20.00;42.04
43312;BME280;30041;48.300;16.352;2023-02-02T01:51:19;99634.03;;;20.01;42.05
43312;BME280;30041;48.300;16.352;2023-02-02T01:53:47;99636.47;;;20.02;41.91
43312;BME280;30041;48.300;16.352;2023-02-02T01:56:21;99633.44;;;19.99;42.06
43312;BME280;30041;48.300;16.352;2023-02-02T01:58:49;99638.00;;;19.98;42.06
43312;BME280;30041;48.300;16.352;2023-02-02T02:01:14;99638.44;;;19.95;41.88
43312;BME280;30041;48.300;16.352;2023-02-02T02:03:41;99639.03;;;19.97;42.02
43312;BME280;30041;48.300;16.352;2023-02-02T02:06:11;99640.09;;;19.96;41.93
43312;BME280;30041;48.300;16.352;2023-02-02T02:08:49;99642.78;;;19.96;41.81
43312;BME280;30041;48.300;16.352;2023-02-02T02:11:20;99649.81;;;19.97;41.76
43312;BME280;30041;48.300;16.352;2023-02-02T02:13:46;99653.56;;;19.96;41.92
43312;BME280;30041;48.300;16.352;2023-02-02T02:16:31;99659.63;;;19.92;41.94
43312;BME280;30041;48.300;16.352;2023-02-02T02:27:27;99666.50;;;19.87;41.90
43312;BME280;30041;48.300;16.352;2023-02-02T02:35:47;99650.34;;;19.87;42.01
43312;BME280;30041;48.300;16.352;2023-02-02T02:38:36;99638.19;;;19.85;41.94
43312;BME280;30041;48.300;16.352;2023-02-02T02:41:12;99648.47;;;19.88;41.85
43312;BME280;30041;48.300;16.352;2023-02-02T02:43:47;99640.88;;;19.85;41.80
43312;BME280;30041;48.300;16.352;2023-02-02T02:46:16;99642.50;;;19.86;41.86
43312;BME280;30041;48.300;16.352;2023-02-02T02:48:43;99635.94;;;19.82;41.82
43312;BME280;30041;48.300;16.352;2023-02-02T02:53:59;99637.34;;;19.84;41.76
43312;BME280;30041;48.300;16.352;2023-02-02T02:56:41;99629.94;;;19.80;42.02
43312;BME280;30041;48.300;16.352;2023-02-02T02:59:33;99630.75;;;19.80;41.96
43312;BME280;30041;48.300;16.352;2023-02-02T03:02:22;99633.44;;;19.80;41.72
43312;BME280;30041;48.300;16.352;2023-02-02T03:10:34;99634.53;;;19.79;41.93
43312;BME280;30041;48.300;16.352;2023-02-02T03:13:01;99639.09;;;19.79;41.89
43312;BME280;30041;48.300;16.352;2023-02-02T03:15:30;99650.88;;;19.78;41.92
43312;BME280;30041;48.300;16.352;2023-02-02T03:17:56;99653.56;;;19.78;41.87
43312;BME280;30041;48.300;16.352;2023-02-02T03:20:21;99649.47;;;19.75;42.03
43312;BME280;30041;48.300;16.352;2023-02-02T03:22:47;99651.53;;;19.73;42.08
43312;BME280;30041;48.300;16.352;2023-02-02T03:25:12;99646.16;;;19.73;41.80
43312;BME280;30041;48.300;16.352;2023-02-02T03:27:38;99648.44;;;19.76;41.93
43312;BME280;30041;48.300;16.352;2023-02-02T03:30:10;99650.72;;;19.73;41.90
43312;BME280;30041;48.300;16.352;2023-02-02T03:32:36;99651.53;;;19.73;41.93
43312;BME280;30041;48.300;16.352;2023-02-02T03:35:02;99653.41;;;19.73;42.10
43312;BME280;30041;48.300;16.352;2023-02-02T03:37:28;99644.31;;;19.74;41.72
43312;BME280;30041;48.300;16.352;2023-02-02T03:39:53;99648.03;;;19.73;41.83
43312;BME280;30041;48.300;16.352;2023-02-02T03:42:19;99646.63;;;19.70;42.01
43312;BME280;30041;48.300;16.352;2023-02-02T03:44:44;99641.44;;;19.68;42.05
43312;BME280;30041;48.300;16.352;2023-02-02T03:47:10;99636.06;;;19.68;42.00
43312;BME280;30041;48.300;16.352;2023-02-02T03:49:35;99636.06;;;19.68;41.93
43312;BME280;30041;48.300;16.352;2023-02-02T03:52:01;99630.94;;;19.67;41.92
43312;BME280;30041;48.300;16.352;2023-02-02T03:54:26;99639.00;;;19.67;41.76
43312;BME280;30041;48.300;16.352;2023-02-02T03:56:52;99639.59;;;19.69;41.93
43312;BME280;30041;48.300;16.352;2023-02-02T03:59:17;99640.63;;;19.68;41.83
43312;BME280;30041;48.300;16.352;2023-02-02T04:01:43;99620.38;;;19.65;41.96
43312;BME280;30041;48.300;16.352;2023-02-02T04:04:08;99633.38;;;19.68;42.01
43312;BME280;30041;48.300;16.352;2023-02-02T04:06:33;99633.25;;;19.63;41.86
43312;BME280;30041;48.300;16.352;2023-02-02T04:08:59;99633.25;;;19.63;42.00
43312;BME280;30041;48.300;16.352;2023-02-02T04:11:24;99638.41;;;19.65;41.75
43312;BME280;30041;48.300;16.352;2023-02-02T04:13:50;99639.59;;;19.69;41.95
43312;BME280;30041;48.300;16.352;2023-02-02T04:16:16;99650.13;;;19.70;41.98
43312;BME280;30041;48.300;16.352;2023-02-02T04:18:41;99648.03;;;19.73;41.78
43312;BME280;30041;48.300;16.352;2023-02-02T04:21:07;99636.00;;;19.75;41.75
43312;BME280;30041;48.300;16.352;2023-02-02T04:23:33;99641.78;;;19.79;41.61
43312;BME280;30041;48.300;16.352;2023-02-02T04:25:59;99635.31;;;19.80;41.56
43312;BME280;30041;48.300;16.352;2023-02-02T04:28:26;99646.47;;;19.83;41.43
43312;BME280;30041;48.300;16.352;2023-02-02T04:30:52;99652.19;;;19.87;41.61
43312;BME280;30041;48.300;16.352;2023-02-02T04:33:20;99647.41;;;19.89;41.54
43312;BME280;30041;48.300;16.352;2023-02-02T04:35:45;99652.56;;;19.90;41.33
43312;BME280;30041;48.300;16.352;2023-02-02T04:38:11;99674.69;;;19.93;41.34
43312;BME280;30041;48.300;16.352;2023-02-02T04:40:41;99672.13;;;19.98;41.10
43312;BME280;30041;48.300;16.352;2023-02-02T04:43:07;99679.19;;;19.99;40.91
43312;BME280;30041;48.300;16.352;2023-02-02T04:45:32;99668.16;;;20.00;41.26
43312;BME280;30041;48.300;16.352;2023-02-02T04:47:58;99668.75;;;20.02;41.25
43312;BME280;30041;48.300;16.352;2023-02-02T04:50:24;99647.03;;;20.04;40.98
43312;BME280;30041;48.300;16.352;2023-02-02T04:52:50;99644.34;;;20.04;40.81
43312;BME280;30041;48.300;16.352;2023-02-02T04:55:15;99643.31;;;20.05;40.98
43312;BME280;30041;48.300;16.352;2023-02-02T04:57:41;99646.34;;;20.08;41.03
43312;BME280;30041;48.300;16.352;2023-02-02T05:00:07;99635.34;;;20.10;41.10
43312;BME280;30041;48.300;16.352;2023-02-02T05:02:40;99630.56;;;20.12;40.80
43312;BME280;30041;48.300;16.352;2023-02-02T05:05:07;99638.09;;;20.22;41.01
43312;BME280;30041;48.300;16.352;2023-02-02T05:07:33;99633.97;;;20.19;40.82
43312;BME280;30041;48.300;16.352;2023-02-02T05:09:59;99649.06;;;20.20;41.11
43312;BME280;30041;48.300;16.352;2023-02-02T05:12:24;99649.91;;;20.21;41.16
43312;BME280;30041;48.300;16.352;2023-02-02T05:14:50;99650.72;;;20.21;41.06
43312;BME280;30041;48.300;16.352;2023-02-02T05:17:15;99658.19;;;20.19;41.07
43312;BME280;30041;48.300;16.352;2023-02-02T05:19:41;99663.13;;;20.22;41.17
43312;BME280;30041;48.300;16.352;2023-02-02T05:22:07;99654.22;;;20.22;41.20
43312;BME280;30041;48.300;16.352;2023-02-02T05:24:32;99657.03;;;20.27;41.18
43312;BME280;30041;48.300;16.352;2023-02-02T05:26:58;99659.31;;;20.30;40.97
43312;BME280;30041;48.300;16.352;2023-02-02T05:29:23;99658.22;;;20.31;41.06
43312;BME280;30041;48.300;16.352;2023-02-02T05:31:49;99658.47;;;20.29;41.11
43312;BME280;30041;48.300;16.352;2023-02-02T05:34:14;99667.97;;;20.32;41.11
43312;BME280;30041;48.300;16.352;2023-02-02T05:36:40;99669.00;;;20.31;41.27
43312;BME280;30041;48.300;16.352;2023-02-02T05:39:06;99672.50;;;20.31;40.98
43312;BME280;30041;48.300;16.352;2023-02-02T05:41:31;99670.66;;;20.32;41.21
43312;BME280;30041;48.300;16.352;2023-02-02T05:44:01;99667.13;;;20.31;41.49
43312;BME280;30041;48.300;16.352;2023-02-02T05:46:26;99676.84;;;20.32;41.36
43312;BME280;30041;48.300;16.352;2023-02-02T05:48:52;99681.44;;;20.32;41.32
43312;BME280;30041;48.300;16.352;2023-02-02T05:51:23;99687.84;;;20.31;41.37
43312;BME280;30041;48.300;16.352;2023-02-02T05:53:50;99691.94;;;20.33;41.36
43312;BME280;30041;48.300;16.352;2023-02-02T05:56:15;99698.38;;;20.32;41.28
43312;BME280;30041;48.300;16.352;2023-02-02T05:58:41;99692.19;;;20.32;41.19
43312;BME280;30041;48.300;16.352;2023-02-02T06:01:07;99696.97;;;20.30;41.29
43312;BME280;30041;48.300;16.352;2023-02-02T06:03:33;99697.78;;;20.30;41.13
43312;BME280;30041;48.300;16.352;2023-02-02T06:05:59;99703.56;;;20.34;41.39
43312;BME280;30041;48.300;16.352;2023-02-02T06:08:24;99708.00;;;20.40;41.17
43312;BME280;30041;48.300;16.352;2023-02-02T06:10:49;99718.75;;;20.40;41.19
43312;BME280;30041;48.300;16.352;2023-02-02T06:13:15;99718.53;;;20.42;41.31
43312;BME280;30041;48.300;16.352;2023-02-02T06:15:40;99719.97;;;20.44;40.96
43312;BME280;30041;48.300;16.352;2023-02-02T06:18:06;99728.03;;;20.44;41.04
43312;BME280;30041;48.300;16.352;2023-02-02T06:20:31;99723.72;;;20.43;41.09
43312;BME280;30041;48.300;16.352;2023-02-02T06:22:57;99723.47;;;20.45;41.11
43312;BME280;30041;48.300;16.352;2023-02-02T06:25:23;99730.72;;;20.44;41.44
43312;BME280;30041;48.300;16.352;2023-02-02T06:27:48;99732.22;;;20.40;41.33
43312;BME280;30041;48.300;16.352;2023-02-02T06:30:14;99732.00;;;20.42;41.05
43312;BME280;30041;48.300;16.352;2023-02-02T06:32:40;99734.47;;;20.43;40.96
43312;BME280;30041;48.300;16.352;2023-02-02T06:35:06;99741.50;;;20.44;40.96
43312;BME280;30041;48.300;16.352;2023-02-02T06:37:32;99738.22;;;20.42;41.22
43312;BME280;30041;48.300;16.352;2023-02-02T06:39:58;99739.03;;;20.43;41.08
43312;BME280;30041;48.300;16.352;2023-02-02T06:42:23;99742.78;;;20.42;41.13
43312;BME280;30041;48.300;16.352;2023-02-02T06:44:48;99754.34;;;20.42;41.19
43312;BME280;30041;48.300;16.352;2023-02-02T06:47:14;99760.00;;;20.41;41.33
43312;BME280;30041;48.300;16.352;2023-02-02T06:49:39;99768.28;;;20.39;41.07
43312;BME280;30041;48.300;16.352;2023-02-02T06:52:06;99752.47;;;20.43;41.22
43312;BME280;30041;48.300;16.352;2023-02-02T06:54:32;99779.41;;;20.43;41.05
43312;BME280;30041;48.300;16.352;2023-02-02T06:56:57;99778.84;;;20.41;41.03
43312;BME280;30041;48.300;16.352;2023-02-02T06:59:23;99793.09;;;20.41;40.93
43312;BME280;30041;48.300;16.352;2023-02-02T07:01:49;99785.03;;;20.41;41.23
43312;BME280;30041;48.300;16.352;2023-02-02T07:04:17;99792.50;;;20.39;41.15
43312;BME280;30041;48.300;16.352;2023-02-02T07:06:43;99790.84;;;20.38;41.35
43312;BME280;30041;48.300;16.352;2023-02-02T07:09:08;99792.28;;;20.41;41.09
43312;BME280;30041;48.300;16.352;2023-02-02T07:11:34;99795.00;;;20.41;41.25
43312;BME280;30041;48.300;16.352;2023-02-02T07:14:00;99797.69;;;20.41;41.27
43312;BME280;30041;48.300;16.352;2023-02-02T07:16:25;99794.13;;;20.40;41.07
43312;BME280;30041;48.300;16.352;2023-02-02T07:18:51;99796.22;;;20.38;41.35
43312;BME280;30041;48.300;16.352;2023-02-02T07:21:21;99804.09;;;20.40;41.27
43312;BME280;30041;48.300;16.352;2023-02-02T07:23:47;99795.81;;;20.41;41.14
43312;BME280;30041;48.300;16.352;2023-02-02T07:26:14;99789.59;;;20.41;41.26
43312;BME280;30041;48.300;16.352;2023-02-02T07:28:40;99797.44;;;20.42;41.24
43312;BME280;30041;48.300;16.352;2023-02-02T07:31:17;99809.84;;;20.43;41.17
43312;BME280;30041;48.300;16.352;2023-02-02T07:33:44;99809.47;;;20.40;40.89
43312;BME280;30041;48.300;16.352;2023-02-02T07:36:12;99813.59;;;20.42;41.06
43312;BME280;30041;48.300;16.352;2023-02-02T07:38:37;99809.25;;;20.41;41.17
43312;BME280;30041;48.300;16.352;2023-02-02T07:41:03;99811.34;;;20.39;41.40
43312;BME280;30041;48.300;16.352;2023-02-02T07:43:29;99809.84;;;20.43;41.25
43312;BME280;30041;48.300;16.352;2023-02-02T07:46:01;99809.84;;;20.43;41.26
43312;BME280;30041;48.300;16.352;2023-02-02T07:48:31;99809.25;;;20.41;41.27
43312;BME280;30041;48.300;16.352;2023-02-02T07:51:05;99815.25;;;20.43;41.20
43312;BME280;30041;48.300;16.352;2023-02-02T07:53:31;99818.16;;;20.42;41.30
43312;BME280;30041;48.300;16.352;2023-02-02T07:56:22;99809.47;;;20.40;41.03
43312;BME280;30041;48.300;16.352;2023-02-02T07:58:51;99816.88;;;20.44;41.31
43312;BME280;30041;48.300;16.352;2023-02-02T08:01:17;99822.47;;;20.43;41.20
43312;BME280;30041;48.300;16.352;2023-02-02T08:03:43;99809.84;;;20.43;41.18
43312;BME280;30041;48.300;16.352;2023-02-02T08:06:24;99818.16;;;20.42;41.10
43312;BME280;30041;48.300;16.352;2023-02-02T08:08:51;99809.00;;;20.43;41.17
43312;BME280;30041;48.300;16.352;2023-02-02T08:11:19;99815.00;;;20.45;41.21
43312;BME280;30041;48.300;16.352;2023-02-02T08:13:48;99805.06;;;20.45;41.07
43312;BME280;30041;48.300;16.352;2023-02-02T08:16:14;99810.47;;;20.45;41.17
43312;BME280;30041;48.300;16.352;2023-02-02T08:18:40;99818.53;;;20.45;41.22
43312;BME280;30041;48.300;16.352;2023-02-02T08:21:07;99812.31;;;20.45;41.29
43312;BME280;30041;48.300;16.352;2023-02-02T08:23:33;99808.59;;;20.46;40.84
43312;BME280;30041;48.300;16.352;2023-02-02T08:26:13;99819.56;;;20.44;40.97
43312;BME280;30041;48.300;16.352;2023-02-02T08:28:40;99804.00;;;20.46;41.18
43312;BME280;30041;48.300;16.352;2023-02-02T08:31:15;99821.22;;;20.45;41.10
43312;BME280;30041;48.300;16.352;2023-02-02T08:33:41;99840.88;;;20.46;41.36
43312;BME280;30041;48.300;16.352;2023-02-02T08:36:14;99837.97;;;20.47;41.54
43312;BME280;30041;48.300;16.352;2023-02-02T08:38:40;99843.94;;;20.49;41.53
43312;BME280;30041;48.300;16.352;2023-02-02T08:41:08;99851.19;;;20.49;41.59
43312;BME280;30041;48.300;16.352;2023-02-02T08:43:34;99846.28;;;20.46;41.88
43312;BME280;30041;48.300;16.352;2023-02-02T08:46:01;99854.34;;;20.46;41.99
43312;BME280;30041;48.300;16.352;2023-02-02T08:48:26;99854.34;;;20.46;41.77
43312;BME280;30041;48.300;16.352;2023-02-02T08:50:53;99848.38;;;20.44;41.75
43312;BME280;30041;48.300;16.352;2023-02-02T08:53:19;99855.03;;;20.41;41.65
43312;BME280;30041;48.300;16.352;2023-02-02T08:55:45;99857.72;;;20.41;41.66
43312;BME280;30041;48.300;16.352;2023-02-02T08:58:10;99861.44;;;20.40;41.64
43312;BME280;30041;48.300;16.352;2023-02-02T09:00:36;99858.75;;;20.40;41.64
43312;BME280;30041;48.300;16.352;2023-02-02T09:03:01;99866.59;;;20.42;41.86
43312;BME280;30041;48.300;16.352;2023-02-02T09:05:27;99862.28;;;20.41;41.81
43312;BME280;30041;48.300;16.352;2023-02-02T09:07:52;99863.09;;;20.41;41.77
43312;BME280;30041;48.300;16.352;2023-02-02T09:10:18;99854.22;;;20.41;41.72
43312;BME280;30041;48.300;16.352;2023-02-02T09:12:43;99853.38;;;20.40;41.75
43312;BME280;30041;48.300;16.352;2023-02-02T09:15:09;99866.59;;;20.42;41.60
43312;BME280;30041;48.300;16.352;2023-02-02T09:17:34;99860.41;;;20.41;41.74
43312;BME280;30041;48.300;16.352;2023-02-02T09:20:00;99872.00;;;20.42;41.69
43312;BME280;30041;48.300;16.352;2023-02-02T09:22:25;99878.44;;;20.41;41.90
43312;BME280;30041;48.300;16.352;2023-02-02T09:24:51;99876.56;;;20.41;41.82
43312;BME280;30041;48.300;16.352;2023-02-02T09:27:16;99876.56;;;20.41;41.95
43312;BME280;30041;48.300;16.352;2023-02-02T09:29:42;99882.75;;;20.42;41.74
43312;BME280;30041;48.300;16.352;2023-02-02T09:32:08;99883.22;;;20.39;42.06
43312;BME280;30041;48.300;16.352;2023-02-02T09:34:33;99878.66;;;20.39;41.81
43312;BME280;30041;48.300;16.352;2023-02-02T09:36:59;99887.53;;;20.40;41.73
43312;BME280;30041;48.300;16.352;2023-02-02T09:39:24;99875.97;;;20.39;41.78
43312;BME280;30041;48.300;16.352;2023-02-02T09:44:52;99887.75;;;20.38;41.93
43312;BME280;30041;48.300;16.352;2023-02-02T09:47:26;99888.34;;;20.40;41.89
43312;BME280;30041;48.300;16.352;2023-02-02T09:50:00;99881.13;;;20.41;41.76
43312;BME280;30041;48.300;16.352;2023-02-02T09:55:33;99876.19;;;20.38;41.98
43312;BME280;30041;48.300;16.352;2023-02-02T10:00:47;99889.03;;;20.36;41.82
43312;BME280;30041;48.300;16.352;2023-02-02T10:03:20;99886.13;;;20.37;41.93
43312;BME280;30041;48.300;16.352;2023-02-02T10:05:52;99886.94;;;20.38;41.85
43312;BME280;30041;48.300;16.352;2023-02-02T10:08:25;99884.63;;;20.41;41.72
43312;BME280;30041;48.300;16.352;2023-02-02T10:10:53;99881.47;;;20.44;41.72
43312;BME280;30041;48.300;16.352;2023-02-02T10:13:25;99886.06;;;20.44;42.07
43312;BME280;30041;48.300;16.352;2023-02-02T10:16:09;99886.66;;;20.46;42.07
43312;BME280;30041;48.300;16.352;2023-02-02T10:24:01;99903.22;;;20.43;42.31
43312;BME280;30041;48.300;16.352;2023-02-02T10:26:42;99901.38;;;20.43;42.09
43312;BME280;30041;48.300;16.352;2023-02-02T10:34:44;99898.25;;;20.46;42.12
43312;BME280;30041;48.300;16.352;2023-02-02T10:37:28;99903.84;;;20.45;42.06
43312;BME280;30041;48.300;16.352;2023-02-02T10:45:28;99904.69;;;20.45;42.35
43312;BME280;30041;48.300;16.352;2023-02-02T10:47:54;99904.69;;;20.45;42.33
43312;BME280;30041;48.300;16.352;2023-02-02T10:50:20;99910.06;;;20.45;41.87
43312;BME280;30041;48.300;16.352;2023-02-02T10:52:58;99896.81;;;20.44;42.32
43312;BME280;30041;48.300;16.352;2023-02-02T10:55:46;99906.31;;;20.46;42.21
43312;BME280;30041;48.300;16.352;2023-02-02T10:58:25;99907.38;;;20.45;42.21
43312;BME280;30041;48.300;16.352;2023-02-02T11:00:57;99900.94;;;20.46;42.26
43312;BME280;30041;48.300;16.352;2023-02-02T11:03:29;99914.38;;;20.46;42.23
43312;BME280;30041;48.300;16.352;2023-02-02T11:05:57;99916.69;;;20.43;42.24
43312;BME280;30041;48.300;16.352;2023-02-02T11:08:36;99907.19;;;20.40;42.06
43312;BME280;30041;48.300;16.352;2023-02-02T11:18:44;99914.25;;;20.41;41.98
43312;BME280;30041;48.300;16.352;2023-02-02T11:21:18;99902.28;;;20.37;41.75
43312;BME280;30041;48.300;16.352;2023-02-02T11:26:18;99917.53;;;20.43;41.94
43312;BME280;30041;48.300;16.352;2023-02-02T11:28:47;99913.78;;;20.44;41.80
43312;BME280;30041;48.300;16.352;2023-02-02T11:31:32;99918.97;;;20.46;41.78
43312;BME280;30041;48.300;16.352;2023-02-02T11:34:16;99911.31;;;20.43;41.81
43312;BME280;30041;48.300;16.352;2023-02-02T11:37:09;99907.81;;;20.42;42.28
43312;BME280;30041;48.300;16.352;2023-02-02T11:39:35;99919.78;;;20.46;42.15
43312;BME280;30041;48.300;16.352;2023-02-02T11:42:04;99914.59;;;20.45;42.43
43312;BME280;30041;48.300;16.352;2023-02-02T11:44:31;99907.00;;;20.42;42.26
43312;BME280;30041;48.300;16.352;2023-02-02T11:46:57;99909.69;;;20.42;42.51
43312;BME280;30041;48.300;16.352;2023-02-02T11:49:24;99912.38;;;20.42;42.54
43312;BME280;30041;48.300;16.352;2023-02-02T11:51:58;99905.56;;;20.39;42.65
43312;BME280;30041;48.300;16.352;2023-02-02T11:54:29;99910.50;;;20.42;42.46
43312;BME280;30041;48.300;16.352;2023-02-02T11:57:01;99910.50;;;20.42;42.56
43312;BME280;30041;48.300;16.352;2023-02-02T11:59:38;99906.16;;;20.41;42.66
43312;BME280;30041;48.300;16.352;2023-02-02T12:04:49;99910.50;;;20.42;42.77
43312;BME280;30041;48.300;16.352;2023-02-02T12:07:28;99902.22;;;20.44;42.67
43312;BME280;30041;48.300;16.352;2023-02-02T12:09:59;99891.22;;;20.45;42.51
43312;BME280;30041;48.300;16.352;2023-02-02T12:15:17;99895.75;;;20.45;42.57
43312;BME280;30041;48.300;16.352;2023-02-02T12:17:47;99884.56;;;20.48;42.72
43312;BME280;30041;48.300;16.352;2023-02-02T12:20:28;99877.50;;;20.47;42.75
43312;BME280;30041;48.300;16.352;2023-02-02T12:25:57;99888.06;;;20.48;42.78
43312;BME280;30041;48.300;16.352;2023-02-02T12:31:29;99884.91;;;20.51;42.80
43312;BME280;30041;48.300;16.352;2023-02-02T12:37:05;99884.31;;;20.49;42.90
43312;BME280;30041;48.300;16.352;2023-02-02T12:39:46;99872.50;;;20.50;43.21
43312;BME280;30041;48.300;16.352;2023-02-02T12:48:09;99871.44;;;20.51;43.38
43312;BME280;30041;48.300;16.352;2023-02-02T12:50:59;99865.25;;;20.51;43.33
43312;BME280;30041;48.300;16.352;2023-02-02T12:53:59;99876.91;;;20.45;43.14
43312;BME280;30041;48.300;16.352;2023-02-02T12:56:43;99868.84;;;20.45;43.26
43312;BME280;30041;48.300;16.352;2023-02-02T12:59:13;99875.66;;;20.47;43.46
43312;BME280;30041;48.300;16.352;2023-02-02T13:02:48;99876.47;;;20.48;43.41
43312;BME280;30041;48.300;16.352;2023-02-02T13:07:39;99872.59;;;20.44;43.46
43312;BME280;30041;48.300;16.352;2023-02-02T13:10:17;99876.09;;;20.44;43.27
43312;BME280;30041;48.300;16.352;2023-02-02T13:12:53;99873.41;;;20.44;43.25
43312;BME280;30041;48.300;16.352;2023-02-02T13:15:22;99873.78;;;20.48;43.26
43312;BME280;30041;48.300;16.352;2023-02-02T13:17:53;99873.78;;;20.48;43.10
43312;BME280;30041;48.300;16.352;2023-02-02T13:23:10;99877.50;;;20.47;43.16
43312;BME280;30041;48.300;16.352;2023-02-02T13:25:49;99882.91;;;20.47;43.19
43312;BME280;30041;48.300;16.352;2023-02-02T13:28:40;99878.78;;;20.44;43.07
43312;BME280;30041;48.300;16.352;2023-02-02T13:31:15;99878.56;;;20.46;42.98
43312;BME280;30041;48.300;16.352;2023-02-02T13:33:43;99876.09;;;20.44;42.91
43312;BME280;30041;48.300;16.352;2023-02-02T13:36:25;99884.38;;;20.43;43.16
43312;BME280;30041;48.300;16.352;2023-02-02T13:38:57;99889.56;;;20.44;42.95
43312;BME280;30041;48.300;16.352;2023-02-02T13:41:27;99885.00;;;20.45;43.18
43312;BME280;30041;48.300;16.352;2023-02-02T13:46:38;99881.47;;;20.44;42.92
43312;BME280;30041;48.300;16.352;2023-02-02T13:49:15;99892.25;;;20.44;43.02
43312;BME280;30041;48.300;16.352;2023-02-02T13:57:18;99888.97;;;20.42;43.00
43312;BME280;30041;48.300;16.352;2023-02-02T14:02:25;99889.78;;;20.43;43.09
43312;BME280;30041;48.300;16.352;2023-02-02T14:04:58;99907.59;;;20.44;42.95
43312;BME280;30041;48.300;16.352;2023-02-02T14:09:58;99900.78;;;20.41;42.97
43312;BME280;30041;48.300;16.352;2023-02-02T14:12:30;99907.59;;;20.44;43.04
43312;BME280;30041;48.300;16.352;2023-02-02T14:14:57;99908.41;;;20.44;43.04
43312;BME280;30041;48.300;16.352;2023-02-02T14:19:58;99918.97;;;20.46;43.03
43312;BME280;30041;48.300;16.352;2023-02-02T14:22:46;99904.50;;;20.40;42.87
43312;BME280;30041;48.300;16.352;2023-02-02T14:27:59;99923.97;;;20.42;43.02
43312;BME280;30041;48.300;16.352;2023-02-02T14:30:28;99936.38;;;20.43;43.28
43312;BME280;30041;48.300;16.352;2023-02-02T14:33:17;99924.78;;;20.43;43.13
43312;BME280;30041;48.300;16.352;2023-02-02T14:38:45;99947.75;;;20.45;43.31
43312;BME280;30041;48.300;16.352;2023-02-02T14:42:32;99944.81;;;20.47;43.61
43312;BME280;30041;48.300;16.352;2023-02-02T14:44:30;99951.88;;;20.48;43.68
43312;BME280;30041;48.300;16.352;2023-02-02T14:46:55;99964.66;;;20.52;44.04
43312;BME280;30041;48.300;16.352;2023-02-02T14:49:23;99952.47;;;20.50;44.03
43312;BME280;30041;48.300;16.352;2023-02-02T14:51:53;99961.56;;;20.49;44.01